LIBD METAR and TAF | Updated Today

LIBD METAR

Bari Karol Wojtyła Airport

Observation time: 32 min. ago

LIBD 251920Z 19006KT CAVOK 26/15 Q1014

Need help? Read our tutorial on how to read METARs or read the parsed version below.

Bari Karol Wojtyła Airport (LIBD) METAR

  • Weather conditions on Wed, 25 May 2022 19:20:00 +0000 (32 min. ago):
  • Present conditions: Dry
  • Clouds: Clear skies
  • Visibility: Greater than 10 km
  • Wind: 190 degrees at 6 knots
  • Temperature: 26 celsius
  • Dew point: 15 celsius
  • Pressure: 1014 millibars
  • Remarks: None


Useful to know...

LIBD TAF

Bari Karol Wojtyła Airport

TAF AMD LIBD 251726Z 2518/2618 19010KT 9999 FEW050 BECMG 2520/2522 VRB05KT BECMG 2608/2610 03010KT
Observation time: 2:26 hr. ago
Need help? Read our tutorial on how to read TAFs or read the parsed version below.

Parsed version of TAF for Bari Karol Wojtyła Airport (LIBD)

  • From 25 May at 18:00 UTC, to day 26 of the month at 18:00 UTC
  • Clouds: A few at 1524 meters
  • Visibility: Greater than 10 km
  • Wind: 190 degrees at 10
  • Expected to arise soon, from 25 May at 20:00 UTC, to day 25 of the month at 22:00 UTC
  • Wind: Variable at 5
  • Expected to arise soon, from 26 May at 08:00 UTC, to day 26 of the month at 10:00 UTC
  • Wind: 30 degrees at 10

Airports near LIBD